CheckWX is a tool to help pilots better visualize weather data.  It is not intended as a substitute for an official pre-flight weather briefing.

16:11:05 UTC

LICT METAR
Vincenzo Florio Trapani-Birgi Airport
Trapani, Italy
Current

1 hour ago

LICT 181455Z 29007KT 9999 FEW030 23/18 Q1017 RMK FEW VIS MIN 9999 WIND THR13 28004KT BLU
Observed
Oct-18 @ 14:55 UTC
Wind
  • 290° at 7 KTS
Visibility
10,000+ meters
Flight Rules
VFR
Cloud Levels
  • Few at 3,000' AGL
Temperature
23°C / 73°F
Dewpoint
18°C / 64°F
Humidity
74%
Altimeter
30.03" Hg
Pressure
1016.92 hPa
Previous

2 hours ago

LICT 181355Z 27007KT 9999 FEW030 24/19 Q1017
Observed
Oct-18 @ 13:55 UTC
Wind
  • 270° at 7 KTS
Visibility
10,000+ meters
Flight Rules
VFR
Cloud Levels
  • Few at 3,000' AGL
Temperature
24°C / 75°F
Dewpoint
19°C / 66°F
Humidity
74%
Altimeter
30.03" Hg
Pressure
1016.92 hPa
Previous

2 hours ago

LICT 181355Z 27007KT 9999 FEW030 24/19 Q1017 RMK FEW VIS MIN 9999 WIND THR13 24006KT BLU
Observed
Oct-18 @ 13:55 UTC
Wind
  • 270° at 7 KTS
Visibility
10,000+ meters
Flight Rules
VFR
Cloud Levels
  • Few at 3,000' AGL
Temperature
24°C / 75°F
Dewpoint
19°C / 66°F
Humidity
74%
Altimeter
30.03" Hg
Pressure
1016.92 hPa